createdAt,value
2023-03-07T07:42:07.360Z,4.50
2023-03-07T07:44:35.653Z,4.50
2023-03-07T07:47:03.019Z,4.60
2023-03-07T07:49:30.385Z,4.60
2023-03-07T07:51:57.710Z,4.70
2023-03-07T07:54:25.268Z,4.80
2023-03-07T07:56:52.587Z,4.90
2023-03-07T07:59:19.959Z,5.00
2023-03-07T08:01:47.281Z,5.10
2023-03-07T08:04:14.606Z,5.10
2023-03-07T08:06:44.231Z,5.20
2023-03-07T08:09:11.814Z,5.40
2023-03-07T08:11:39.181Z,5.40
2023-03-07T08:14:06.533Z,5.50
2023-03-07T08:16:33.867Z,5.50
2023-03-07T08:19:01.607Z,5.60
2023-03-07T08:21:29.248Z,5.70
2023-03-07T08:23:57.563Z,5.70
2023-03-07T08:26:25.469Z,5.80
2023-03-07T08:28:53.061Z,5.80
2023-03-07T08:31:24.864Z,5.90
2023-03-07T08:33:53.103Z,5.90
2023-03-07T08:36:20.936Z,6.00
2023-03-07T08:38:52.370Z,6.00
2023-03-07T08:41:22.552Z,6.10
2023-03-07T08:43:50.032Z,6.10
2023-03-07T08:46:18.518Z,6.10
2023-03-07T08:48:46.126Z,6.10
2023-03-07T08:51:17.989Z,6.10
2023-03-07T08:53:46.278Z,6.10
2023-03-07T08:56:19.001Z,6.10
2023-03-07T08:58:46.675Z,6.20
2023-03-07T09:01:14.144Z,6.30
2023-03-07T09:03:42.702Z,6.30
2023-03-07T09:06:21.156Z,6.40
2023-03-07T09:08:51.887Z,6.30
2023-03-07T09:11:21.587Z,6.30
2023-03-07T09:13:52.846Z,6.40
2023-03-07T09:16:21.660Z,6.30
2023-03-07T09:18:49.556Z,6.40
2023-03-07T09:21:16.849Z,6.50
2023-03-07T09:23:44.493Z,6.50
2023-03-07T09:26:12.088Z,6.60
2023-03-07T09:28:39.476Z,6.70
2023-03-07T09:31:13.780Z,6.70
2023-03-07T09:33:42.273Z,6.70
2023-03-07T09:36:13.876Z,6.70
2023-03-07T09:38:41.548Z,6.70
2023-03-07T09:41:33.849Z,6.70
2023-03-07T09:44:47.159Z,6.60
2023-03-07T09:48:07.400Z,6.60
2023-03-07T09:51:24.025Z,6.70
2023-03-07T09:54:06.000Z,6.70
2023-03-07T09:56:57.127Z,6.50
2023-03-07T09:59:48.621Z,6.70
2023-03-07T10:03:03.882Z,6.80
2023-03-07T10:05:48.957Z,7.00
2023-03-07T10:08:31.777Z,7.30
2023-03-07T10:11:24.791Z,7.50
2023-03-07T10:15:17.177Z,7.80
2023-03-07T10:18:26.331Z,7.90
2023-03-07T10:22:13.260Z,8.10
2023-03-07T10:25:07.211Z,8.00
2023-03-07T10:27:34.700Z,7.90
2023-03-07T10:30:18.634Z,7.80
2023-03-07T10:32:55.988Z,7.60
2023-03-07T10:35:41.887Z,7.70
2023-03-07T10:39:24.579Z,7.80
2023-03-07T10:41:53.577Z,8.00
2023-03-07T10:44:22.041Z,8.00
2023-03-07T10:47:00.015Z,8.00
2023-03-07T10:49:45.638Z,8.10
2023-03-07T10:52:46.280Z,8.10
2023-03-07T10:55:44.294Z,8.30
2023-03-07T10:58:28.219Z,8.50
2023-03-07T11:01:08.147Z,8.40
2023-03-07T11:04:00.811Z,8.50
2023-03-07T11:06:51.202Z,8.60
2023-03-07T11:09:46.004Z,8.80
2023-03-07T11:12:21.724Z,8.80
2023-03-07T11:15:11.624Z,9.00
2023-03-07T11:17:49.361Z,9.00
2023-03-07T11:20:50.303Z,9.30
2023-03-07T11:23:30.843Z,9.30
2023-03-07T11:26:22.150Z,9.20
2023-03-07T11:29:14.585Z,9.50
2023-03-07T11:32:22.291Z,9.70
2023-03-07T11:35:19.226Z,9.70
2023-03-07T11:38:25.353Z,9.80
2023-03-07T11:41:28.903Z,9.90
2023-03-07T11:44:38.956Z,9.90
2023-03-07T11:47:43.308Z,9.90
2023-03-07T11:50:19.745Z,9.90
2023-03-07T11:53:28.398Z,10.00
2023-03-07T11:56:32.480Z,10.30
2023-03-07T11:59:52.927Z,10.30
2023-03-07T12:03:36.016Z,10.40
2023-03-07T12:06:39.845Z,10.60
2023-03-07T12:09:36.831Z,10.60
2023-03-07T12:13:31.961Z,10.50
2023-03-07T12:16:44.409Z,10.30
2023-03-07T12:20:13.396Z,10.40
2023-03-07T12:22:53.180Z,10.50
2023-03-07T12:25:38.326Z,10.60
2023-03-07T12:28:55.969Z,10.30
2023-03-07T12:31:48.571Z,10.20
2023-03-07T12:34:43.916Z,10.70
2023-03-07T12:37:23.100Z,11.00
2023-03-07T12:40:13.485Z,11.20
2023-03-07T12:43:33.172Z,11.40
2023-03-07T12:46:56.902Z,11.70
2023-03-07T12:50:04.842Z,11.90
2023-03-07T12:52:48.568Z,11.70
2023-03-07T12:55:34.816Z,11.30
2023-03-07T12:58:39.037Z,11.30
2023-03-07T13:01:30.370Z,11.10
2023-03-07T13:04:28.635Z,10.90
2023-03-07T13:07:17.619Z,11.20
2023-03-07T13:09:50.526Z,11.20
2023-03-07T13:12:22.474Z,11.30
2023-03-07T13:15:04.794Z,11.40
2023-03-07T13:17:33.213Z,11.50
2023-03-07T13:20:15.750Z,11.40
2023-03-07T13:22:43.161Z,10.70
2023-03-07T13:25:51.746Z,10.70
2023-03-07T13:28:45.808Z,10.60
2023-03-07T13:31:15.996Z,10.50
2023-03-07T13:33:43.891Z,10.30
2023-03-07T13:36:39.338Z,10.50
2023-03-07T13:39:38.719Z,10.40
2023-03-07T13:42:48.875Z,10.50
2023-03-07T13:46:00.002Z,10.50
2023-03-07T13:48:30.082Z,10.30
2023-03-07T13:51:00.354Z,10.00
2023-03-07T13:53:46.164Z,9.80
2023-03-07T13:56:16.369Z,9.60
2023-03-07T13:59:28.274Z,9.20
2023-03-07T14:02:00.868Z,9.30
2023-03-07T14:04:54.290Z,9.20
2023-03-07T14:07:36.987Z,9.10
2023-03-07T14:10:35.562Z,8.80
2023-03-07T14:14:20.258Z,8.90
2023-03-07T14:17:20.237Z,9.00
2023-03-07T14:20:44.973Z,9.20
2023-03-07T14:24:11.185Z,9.20
2023-03-07T14:26:56.545Z,9.10
2023-03-07T14:29:30.184Z,8.90
2023-03-07T14:32:01.068Z,8.70
2023-03-07T14:34:36.213Z,8.70
2023-03-07T14:37:21.152Z,8.50
2023-03-07T14:40:22.316Z,8.60
2023-03-07T14:44:07.456Z,8.70
2023-03-07T14:47:40.230Z,8.40
2023-03-07T14:50:21.641Z,8.40
2023-03-07T14:52:51.586Z,8.10
2023-03-07T14:55:35.728Z,8.00
2023-03-07T14:58:03.260Z,8.00
2023-03-07T15:00:33.901Z,8.00
2023-03-07T15:03:08.589Z,7.80
2023-03-07T15:05:51.895Z,7.70
2023-03-07T15:08:39.482Z,7.80
2023-03-07T15:11:44.635Z,7.80
2023-03-07T15:14:51.293Z,7.90
2023-03-07T15:17:44.079Z,8.00
2023-03-07T15:20:27.173Z,8.10
2023-03-07T15:23:08.166Z,8.10
2023-03-07T15:25:38.926Z,8.10
2023-03-07T15:28:23.724Z,8.00
2023-03-07T15:30:53.692Z,7.90
2023-03-07T15:33:25.145Z,8.00
2023-03-07T15:36:14.321Z,8.10
2023-03-07T15:38:51.623Z,8.00
2023-03-07T15:41:36.899Z,7.90
2023-03-07T15:44:24.483Z,7.90
2023-03-07T15:46:57.905Z,8.00
2023-03-07T15:49:49.971Z,8.00
2023-03-07T15:52:39.634Z,8.10
2023-03-07T15:55:26.257Z,8.10
2023-03-07T15:58:11.986Z,8.00
2023-03-07T16:00:41.805Z,7.80
2023-03-07T16:03:30.615Z,7.80
2023-03-07T16:06:01.645Z,7.70
2023-03-07T16:08:29.237Z,7.60
2023-03-07T16:11:07.685Z,7.50
2023-03-07T16:13:43.790Z,7.60
2023-03-07T16:16:13.941Z,7.50
2023-03-07T16:18:42.962Z,7.40
2023-03-07T16:21:15.467Z,7.40
2023-03-07T16:23:44.286Z,7.40
2023-03-07T16:26:21.624Z,7.40
2023-03-07T16:28:53.698Z,7.50
2023-03-07T16:31:21.766Z,7.70
2023-03-07T16:33:49.246Z,7.70
2023-03-07T16:36:17.115Z,7.60
2023-03-07T16:38:45.945Z,7.60
2023-03-07T16:41:22.134Z,7.40
2023-03-07T16:43:58.749Z,7.50
2023-03-07T16:46:28.167Z,7.40
2023-03-07T16:48:55.632Z,7.40
2023-03-07T16:51:26.171Z,7.40
2023-03-07T16:53:53.477Z,7.30
2023-03-07T16:56:36.974Z,7.50
2023-03-07T16:59:06.054Z,7.50
2023-03-07T17:01:33.478Z,7.50
2023-03-07T17:04:00.872Z,7.50
2023-03-07T17:06:38.813Z,7.40
2023-03-07T17:09:10.266Z,7.20
2023-03-07T17:11:50.381Z,7.20
2023-03-07T17:14:19.614Z,7.20
2023-03-07T17:16:50.368Z,7.20
2023-03-07T17:19:35.932Z,7.20
2023-03-07T17:22:03.541Z,7.10
2023-03-07T17:24:31.250Z,7.20
2023-03-07T17:27:05.206Z,7.20
2023-03-07T17:29:49.943Z,7.30
2023-03-07T17:32:18.789Z,7.30
2023-03-07T17:34:46.188Z,7.20
2023-03-07T17:37:14.187Z,7.10
2023-03-07T17:39:42.498Z,7.10
2023-03-07T17:42:10.230Z,7.10
2023-03-07T17:44:37.729Z,7.00
2023-03-07T17:47:05.223Z,7.00
2023-03-07T17:49:37.648Z,6.80
2023-03-07T17:52:07.094Z,6.80
2023-03-07T17:54:34.777Z,6.80
2023-03-07T17:57:03.331Z,6.90
2023-03-07T17:59:32.833Z,6.80
2023-03-07T18:02:00.346Z,6.80
2023-03-07T18:04:31.069Z,6.80
2023-03-07T18:07:00.327Z,6.70
2023-03-07T18:09:27.704Z,6.80
2023-03-07T18:11:55.020Z,6.80
2023-03-07T18:14:23.005Z,6.90
2023-03-07T18:16:50.784Z,6.80
2023-03-07T18:19:26.439Z,6.80
2023-03-07T18:21:55.377Z,6.80
2023-03-07T18:24:29.994Z,6.70
2023-03-07T18:26:59.529Z,6.70
2023-03-07T18:29:28.929Z,6.70
2023-03-07T18:31:56.501Z,6.80
2023-03-07T18:34:24.985Z,6.70
2023-03-07T18:36:54.314Z,6.70
2023-03-07T18:39:23.570Z,6.70
2023-03-07T18:41:51.436Z,6.70
2023-03-07T18:44:19.700Z,6.70
2023-03-07T18:46:47.185Z,6.70
2023-03-07T18:49:14.579Z,6.80
2023-03-07T18:51:45.677Z,6.80
2023-03-07T18:54:14.084Z,6.90
2023-03-07T18:56:44.382Z,7.00
2023-03-07T18:59:11.662Z,7.00
2023-03-07T19:01:39.715Z,7.10
2023-03-07T19:04:08.274Z,7.10
2023-03-07T19:06:42.226Z,7.10
2023-03-07T19:09:18.709Z,7.10
2023-03-07T19:11:47.624Z,7.00
2023-03-07T19:14:15.033Z,7.10
2023-03-07T19:16:42.395Z,7.10
2023-03-07T19:19:09.836Z,7.20
2023-03-07T19:21:37.215Z,7.20
2023-03-07T19:24:05.805Z,7.20
2023-03-07T19:26:33.925Z,7.20
2023-03-07T19:29:01.332Z,7.20
2023-03-07T19:31:31.991Z,7.30
2023-03-07T19:34:01.521Z,7.20
2023-03-07T19:36:32.064Z,7.20
2023-03-07T19:38:59.535Z,7.20
2023-03-07T19:41:31.428Z,7.10
2023-03-07T19:44:01.233Z,7.10
2023-03-07T19:46:28.914Z,7.20
2023-03-07T19:48:56.451Z,7.20
2023-03-07T19:51:27.039Z,7.10
2023-03-07T19:53:57.399Z,7.10
2023-03-07T19:56:32.066Z,7.00
2023-03-07T19:59:02.488Z,7.10
2023-03-07T20:01:30.461Z,7.10
2023-03-07T20:04:00.406Z,7.10
2023-03-07T20:06:31.466Z,7.10
2023-03-07T20:09:00.591Z,7.10
2023-03-07T20:11:35.934Z,7.10
2023-03-07T20:14:05.854Z,7.00
2023-03-07T20:16:34.957Z,7.10
2023-03-07T20:19:08.722Z,7.00
2023-03-07T20:21:37.440Z,7.00
2023-03-07T20:24:06.905Z,6.90
2023-03-07T20:26:38.435Z,6.90
2023-03-07T20:29:08.577Z,6.90
2023-03-07T20:31:39.199Z,6.90
2023-03-07T20:34:07.456Z,6.90
2023-03-07T20:36:37.691Z,6.90
2023-03-07T20:39:14.335Z,6.90
2023-03-07T20:41:44.203Z,7.00
2023-03-07T20:44:15.652Z,6.90
2023-03-07T20:46:43.143Z,6.80
2023-03-07T20:49:14.738Z,6.80
2023-03-07T20:51:43.888Z,6.60
2023-03-07T20:54:15.910Z,6.60
2023-03-07T20:56:45.918Z,6.70
2023-03-07T20:59:17.738Z,6.80
2023-03-07T21:01:45.647Z,6.80
2023-03-07T21:04:17.644Z,6.80
2023-03-07T21:06:46.793Z,6.90
2023-03-07T21:09:17.618Z,6.90
2023-03-07T21:11:49.289Z,6.80
2023-03-07T21:14:19.351Z,6.90
2023-03-07T21:16:46.627Z,6.90
2023-03-07T21:19:14.771Z,6.90
2023-03-07T21:21:42.468Z,6.90
2023-03-07T21:24:12.412Z,6.80
2023-03-07T21:26:39.983Z,6.70
2023-03-07T21:29:09.036Z,6.60
2023-03-07T21:31:37.309Z,6.50
2023-03-07T21:34:13.654Z,6.50
2023-03-07T21:36:41.498Z,6.50
2023-03-07T21:39:10.007Z,6.60
2023-03-07T21:41:37.975Z,6.60
2023-03-07T21:44:06.158Z,6.60
2023-03-07T21:46:33.840Z,6.60
2023-03-07T21:49:01.547Z,6.70
2023-03-07T21:51:28.959Z,6.70
2023-03-07T21:53:56.239Z,6.70
2023-03-07T21:56:24.000Z,6.70
2023-03-07T21:58:51.880Z,6.60
2023-03-07T22:01:27.565Z,6.50
2023-03-07T22:03:58.763Z,6.50
2023-03-07T22:06:28.309Z,6.50
2023-03-07T22:08:55.857Z,6.40
2023-03-07T22:11:23.269Z,6.40
